createdAt,value
2023-01-09T00:00:45.863Z,13.02
2023-01-09T00:05:47.689Z,12.25
2023-01-09T00:10:50.580Z,12.90
2023-01-09T00:15:52.396Z,13.70
2023-01-09T00:20:54.207Z,12.90
2023-01-09T00:26:05.917Z,13.27
2023-01-09T00:31:09.536Z,13.70
2023-01-09T00:36:12.236Z,13.68
2023-01-09T00:41:20.774Z,13.25
2023-01-09T00:46:27.380Z,13.60
2023-01-09T00:51:29.449Z,13.50
2023-01-09T00:56:33.795Z,13.35
2023-01-09T01:01:35.988Z,12.23
2023-01-09T01:06:56.389Z,11.20
2023-01-09T01:11:58.134Z,13.38
2023-01-09T01:17:00.281Z,12.70
2023-01-09T01:22:02.527Z,12.75
2023-01-09T01:27:04.297Z,13.90
2023-01-09T01:32:06.033Z,12.52
2023-01-09T01:37:07.769Z,12.85
2023-01-09T01:42:12.986Z,12.60
2023-01-09T01:47:16.374Z,14.00
2023-01-09T01:52:19.348Z,12.30
2023-01-09T01:57:21.127Z,14.40
2023-01-09T02:02:25.681Z,14.20
2023-01-09T02:07:27.631Z,14.55
2023-01-09T02:12:29.403Z,13.75
2023-01-09T02:17:40.121Z,13.93
2023-01-09T02:22:50.726Z,13.68
2023-01-09T02:28:03.406Z,13.13
2023-01-09T02:33:32.510Z,14.68
2023-01-09T02:39:11.949Z,13.70
2023-01-09T02:44:29.696Z,14.23
2023-01-09T02:49:33.707Z,13.95
2023-01-09T02:54:52.526Z,12.82
2023-01-09T03:00:02.559Z,13.60
2023-01-09T03:05:11.369Z,13.65
2023-01-09T03:10:26.712Z,13.15
2023-01-09T03:15:32.230Z,12.43
2023-01-09T03:20:34.663Z,11.98
2023-01-09T03:25:36.392Z,12.65
2023-01-09T03:30:38.173Z,14.75
2023-01-09T03:35:39.887Z,12.40
2023-01-09T03:40:43.766Z,13.35
2023-01-09T03:45:45.579Z,14.45
2023-01-09T03:50:54.935Z,16.70
2023-01-09T03:55:58.070Z,16.70
2023-01-09T04:01:02.055Z,16.17
2023-01-09T04:06:04.473Z,18.15
2023-01-09T04:11:06.240Z,16.17
2023-01-09T04:16:08.290Z,14.95
2023-01-09T04:21:10.072Z,15.23
2023-01-09T04:26:11.810Z,17.67
2023-01-09T04:31:13.925Z,16.38
2023-01-09T04:36:15.663Z,14.90
2023-01-09T04:41:37.445Z,14.30
2023-01-09T04:46:39.178Z,12.95
2023-01-09T04:51:41.156Z,12.77
2023-01-09T04:56:42.923Z,11.52
2023-01-09T05:01:44.884Z,12.18
2023-01-09T05:06:46.918Z,11.52
2023-01-09T05:11:49.073Z,11.52
2023-01-09T05:16:50.851Z,11.88
2023-01-09T05:21:52.606Z,11.27
2023-01-09T05:26:54.365Z,17.75
2023-01-09T05:31:56.321Z,12.88
2023-01-09T05:36:58.069Z,12.25
2023-01-09T05:41:59.804Z,13.35
2023-01-09T05:47:02.881Z,12.00
2023-01-09T05:52:05.024Z,10.85
2023-01-09T05:57:06.794Z,11.20
2023-01-09T06:02:08.621Z,11.95
2023-01-09T06:07:10.400Z,11.32
2023-01-09T06:12:12.126Z,10.68
2023-01-09T06:17:13.886Z,12.60
2023-01-09T06:22:15.611Z,11.23
2023-01-09T06:27:17.342Z,10.57
2023-01-09T06:32:19.113Z,11.48
2023-01-09T06:37:20.822Z,13.15
2023-01-09T06:42:22.552Z,13.18
2023-01-09T06:47:24.300Z,12.15
2023-01-09T06:52:26.003Z,15.52
2023-01-09T06:57:27.739Z,12.85
2023-01-09T07:02:29.734Z,14.27
2023-01-09T07:07:31.496Z,14.80
2023-01-09T07:12:33.456Z,14.82
2023-01-09T07:17:35.407Z,18.52
2023-01-09T07:22:37.199Z,17.98
2023-01-09T07:27:39.312Z,15.65
2023-01-09T07:32:41.123Z,20.58
2023-01-09T07:37:42.864Z,20.30
2023-01-09T07:42:44.659Z,21.80
2023-01-09T07:47:46.412Z,21.67
2023-01-09T07:52:48.292Z,20.90
2023-01-09T07:57:51.079Z,20.38
2023-01-09T08:02:53.941Z,21.58
2023-01-09T08:07:55.867Z,20.25
2023-01-09T08:12:57.598Z,20.65
2023-01-09T08:17:59.495Z,23.55
2023-01-09T08:23:01.285Z,23.33
2023-01-09T08:28:03.046Z,113.38
2023-01-09T08:33:05.244Z,94.43
2023-01-09T08:38:06.987Z,49.22
2023-01-09T08:43:27.825Z,28.80
2023-01-09T08:48:29.607Z,24.20
2023-01-09T08:53:31.531Z,23.45
2023-01-09T08:58:33.395Z,22.25
2023-01-09T09:03:35.144Z,22.40
2023-01-09T09:08:36.859Z,21.55
2023-01-09T09:13:38.589Z,20.60
2023-01-09T09:18:40.314Z,20.55
2023-01-09T09:23:42.170Z,18.73
2023-01-09T09:28:43.976Z,20.98
2023-01-09T09:33:45.736Z,20.02
2023-01-09T09:38:48.799Z,18.30
2023-01-09T09:44:32.106Z,18.63
2023-01-09T09:49:53.499Z,22.65
2023-01-09T09:55:00.158Z,18.38
2023-01-09T10:00:04.510Z,25.88
2023-01-09T10:05:24.442Z,18.67
2023-01-09T10:10:44.387Z,17.73
2023-01-09T10:15:55.262Z,16.83
2023-01-09T10:21:05.503Z,15.10
2023-01-09T10:26:20.556Z,13.50
2023-01-09T10:31:34.251Z,12.35
2023-01-09T10:36:54.048Z,12.07
2023-01-09T10:42:11.213Z,13.02
2023-01-09T10:47:19.312Z,11.97
2023-01-09T10:52:28.770Z,15.20
2023-01-09T10:57:43.713Z,14.75
2023-01-09T11:02:45.864Z,15.95
2023-01-09T11:08:04.442Z,11.15
2023-01-09T11:13:20.408Z,6.43
2023-01-09T11:18:24.723Z,5.30
2023-01-09T11:23:32.399Z,4.43
2023-01-09T11:28:34.253Z,5.13
2023-01-09T11:33:47.014Z,8.45
2023-01-09T11:38:57.739Z,7.85
2023-01-09T11:44:00.177Z,7.05
2023-01-09T11:49:04.861Z,5.00
2023-01-09T11:54:26.454Z,3.20
2023-01-09T11:59:30.376Z,3.35
2023-01-09T12:04:32.082Z,2.97
2023-01-09T12:09:56.834Z,2.88
2023-01-09T12:15:04.654Z,2.42
2023-01-09T12:20:59.579Z,2.50
2023-01-09T12:26:14.210Z,3.38
2023-01-09T12:31:25.890Z,2.47
2023-01-09T12:36:47.846Z,1.80
2023-01-09T12:41:52.654Z,3.45
2023-01-09T12:47:13.090Z,4.63
2023-01-09T12:52:25.902Z,2.50
2023-01-09T12:57:32.857Z,4.28
2023-01-09T13:02:44.358Z,4.13
2023-01-09T13:08:08.175Z,3.40
2023-01-09T13:13:18.903Z,2.85
2023-01-09T13:18:41.867Z,2.65
2023-01-09T13:23:49.874Z,2.78
2023-01-09T13:28:54.905Z,2.20
2023-01-09T13:34:02.933Z,2.65
2023-01-09T13:39:07.059Z,2.40
2023-01-09T13:44:17.902Z,2.90
2023-01-09T13:49:43.815Z,5.53
2023-01-09T13:55:00.865Z,3.70
2023-01-09T14:00:14.975Z,4.80
2023-01-09T14:05:36.698Z,8.70
2023-01-09T14:10:49.171Z,8.40
2023-01-09T14:15:52.890Z,5.10
2023-01-09T14:21:01.319Z,2.00
2023-01-09T14:26:03.718Z,3.05
2023-01-09T14:31:07.121Z,2.83
2023-01-09T14:36:21.975Z,4.75
2023-01-09T14:42:00.930Z,3.05
2023-01-09T14:47:14.496Z,3.60
2023-01-09T14:52:25.140Z,2.78
2023-01-09T14:57:31.766Z,2.58
2023-01-09T15:02:36.633Z,2.60
2023-01-09T15:07:48.752Z,2.10
2023-01-09T15:12:54.531Z,2.20
2023-01-09T15:18:07.852Z,3.47
2023-01-09T15:23:22.846Z,17.70
2023-01-09T15:28:27.589Z,6.22
2023-01-09T15:33:29.722Z,3.85
2023-01-09T15:38:33.075Z,2.40
2023-01-09T15:43:36.816Z,2.22
2023-01-09T15:48:38.670Z,2.85
2023-01-09T15:53:41.515Z,2.45
2023-01-09T15:58:48.672Z,2.72
2023-01-09T16:03:51.020Z,3.25
2023-01-09T16:08:56.137Z,2.13
2023-01-09T16:14:13.971Z,4.30
2023-01-09T16:19:52.197Z,2.55
2023-01-09T16:24:57.339Z,4.70
2023-01-09T16:30:08.740Z,4.30
2023-01-09T16:35:19.436Z,5.70
2023-01-09T16:40:26.133Z,3.85
2023-01-09T16:45:32.320Z,2.33
2023-01-09T16:50:34.148Z,2.30
2023-01-09T16:55:37.526Z,2.00
2023-01-09T17:00:39.280Z,1.60
2023-01-09T17:05:41.370Z,1.75
2023-01-09T17:10:43.101Z,2.17
2023-01-09T17:15:45.529Z,2.00
2023-01-09T17:20:53.067Z,2.15
2023-01-09T17:26:16.737Z,4.95
2023-01-09T17:31:18.993Z,3.30
2023-01-09T17:36:32.257Z,73.15
2023-01-09T17:41:34.189Z,101.30
2023-01-09T17:46:38.398Z,40.22
2023-01-09T17:51:40.219Z,47.03
2023-01-09T17:56:45.345Z,10.80
2023-01-09T18:01:47.236Z,10.60
2023-01-09T18:06:49.544Z,39.08
2023-01-09T18:11:51.277Z,15.32
2023-01-09T18:16:53.036Z,23.15
2023-01-09T18:21:54.842Z,11.93
2023-01-09T18:26:56.555Z,10.68
2023-01-09T18:31:58.365Z,10.82
2023-01-09T18:37:00.199Z,9.57
2023-01-09T18:42:02.058Z,6.63
2023-01-09T18:47:03.923Z,6.47
2023-01-09T18:52:07.530Z,4.32
2023-01-09T18:57:09.541Z,3.40
2023-01-09T19:02:29.271Z,2.38
2023-01-09T19:07:31.566Z,3.28
2023-01-09T19:12:33.386Z,4.40
2023-01-09T19:17:35.121Z,3.88
2023-01-09T19:22:36.966Z,7.10
2023-01-09T19:27:39.151Z,6.90
2023-01-09T19:32:40.940Z,7.93
2023-01-09T19:37:42.882Z,6.32
2023-01-09T19:42:44.650Z,6.47
2023-01-09T19:47:47.475Z,6.00
2023-01-09T19:52:50.841Z,5.00
2023-01-09T19:57:52.663Z,5.60
2023-01-09T20:02:54.807Z,3.47
2023-01-09T20:07:57.500Z,6.40
2023-01-09T20:12:59.247Z,5.72
2023-01-09T20:18:01.899Z,5.15
2023-01-09T20:23:03.628Z,5.70
2023-01-09T20:28:05.412Z,4.55
2023-01-09T20:33:07.166Z,4.18
2023-01-09T20:38:09.325Z,5.60
2023-01-09T20:43:12.825Z,6.00
2023-01-09T20:48:14.779Z,5.00
2023-01-09T20:53:16.577Z,4.35
2023-01-09T20:58:18.354Z,5.50
2023-01-09T21:03:20.145Z,5.05
2023-01-09T21:08:21.893Z,3.58
2023-01-09T21:13:24.418Z,5.13
2023-01-09T21:18:26.141Z,4.40
2023-01-09T21:23:27.897Z,5.57
2023-01-09T21:28:31.685Z,4.15
2023-01-09T21:33:33.449Z,2.95
2023-01-09T21:38:35.566Z,3.40
2023-01-09T21:43:55.823Z,3.72
2023-01-09T21:48:57.778Z,3.88
2023-01-09T21:53:59.523Z,3.58
2023-01-09T21:59:02.031Z,3.90
2023-01-09T22:04:04.080Z,4.00
2023-01-09T22:09:05.948Z,4.43
2023-01-09T22:14:10.628Z,3.60
2023-01-09T22:19:13.706Z,3.40
2023-01-09T22:24:17.538Z,4.05
2023-01-09T22:29:19.286Z,4.00
2023-01-09T22:34:21.089Z,3.80
2023-01-09T22:39:22.894Z,3.58
2023-01-09T22:44:24.785Z,4.28
2023-01-09T22:49:30.281Z,3.67
2023-01-09T22:54:35.129Z,3.10
2023-01-09T22:59:37.010Z,3.50
2023-01-09T23:04:38.747Z,3.00
2023-01-09T23:09:40.539Z,2.88
2023-01-09T23:14:42.378Z,3.08
2023-01-09T23:19:44.237Z,3.03
2023-01-09T23:24:45.983Z,3.00
2023-01-09T23:29:47.878Z,2.58
2023-01-09T23:34:49.855Z,3.08
2023-01-09T23:39:51.627Z,2.20
2023-01-09T23:44:53.337Z,2.53
2023-01-09T23:49:55.072Z,2.15
2023-01-09T23:54:57.000Z,2.92
2023-01-09T23:59:59.242Z,2.72
